sensor_id;sensor_type;location;lat;lon;timestamp;P1;durP1;ratioP1;P2;durP2;ratioP2
72060;SDS011;59925;52.136;5.420;2024-03-02T00:00:07;1.73;;;0.50;;
72060;SDS011;59925;52.136;5.420;2024-03-02T00:02:44;2.92;;;0.40;;
72060;SDS011;59925;52.136;5.420;2024-03-02T00:05:12;3.15;;;0.50;;
72060;SDS011;59925;52.136;5.420;2024-03-02T00:07:44;0.93;;;0.30;;
72060;SDS011;59925;52.136;5.420;2024-03-02T00:10:16;1.27;;;0.40;;
72060;SDS011;59925;52.136;5.420;2024-03-02T00:12:46;2.00;;;0.68;;
72060;SDS011;59925;52.136;5.420;2024-03-02T00:17:56;2.80;;;0.80;;
72060;SDS011;59925;52.136;5.420;2024-03-02T00:20:24;1.30;;;0.40;;
72060;SDS011;59925;52.136;5.420;2024-03-02T00:23:09;2.03;;;0.45;;
72060;SDS011;59925;52.136;5.420;2024-03-02T00:25:43;1.73;;;0.40;;
72060;SDS011;59925;52.136;5.420;2024-03-02T00:28:21;2.25;;;0.60;;
72060;SDS011;59925;52.136;5.420;2024-03-02T00:30:58;1.60;;;0.57;;
72060;SDS011;59925;52.136;5.420;2024-03-02T00:33:35;1.23;;;0.40;;
72060;SDS011;59925;52.136;5.420;2024-03-02T00:36:04;3.83;;;0.70;;
72060;SDS011;59925;52.136;5.420;2024-03-02T00:38:31;2.60;;;0.63;;
72060;SDS011;59925;52.136;5.420;2024-03-02T00:40:59;2.08;;;0.50;;
72060;SDS011;59925;52.136;5.420;2024-03-02T00:43:41;1.58;;;0.50;;
72060;SDS011;59925;52.136;5.420;2024-03-02T00:46:12;3.47;;;0.60;;
72060;SDS011;59925;52.136;5.420;2024-03-02T00:48:48;2.63;;;0.65;;
72060;SDS011;59925;52.136;5.420;2024-03-02T00:51:19;2.92;;;0.60;;
72060;SDS011;59925;52.136;5.420;2024-03-02T00:53:46;1.17;;;0.40;;
72060;SDS011;59925;52.136;5.420;2024-03-02T00:56:13;0.90;;;0.28;;
72060;SDS011;59925;52.136;5.420;2024-03-02T00:58:40;0.73;;;0.20;;
72060;SDS011;59925;52.136;5.420;2024-03-02T01:01:07;0.90;;;0.20;;
72060;SDS011;59925;52.136;5.420;2024-03-02T01:03:34;0.77;;;0.20;;
72060;SDS011;59925;52.136;5.420;2024-03-02T01:06:00;0.32;;;0.17;;
72060;SDS011;59925;52.136;5.420;2024-03-02T01:08:27;0.55;;;0.20;;
72060;SDS011;59925;52.136;5.420;2024-03-02T01:10:54;0.67;;;0.20;;
72060;SDS011;59925;52.136;5.420;2024-03-02T01:13:21;0.40;;;0.20;;
72060;SDS011;59925;52.136;5.420;2024-03-02T01:15:49;0.90;;;0.20;;
72060;SDS011;59925;52.136;5.420;2024-03-02T01:18:16;0.55;;;0.20;;
72060;SDS011;59925;52.136;5.420;2024-03-02T01:20:43;0.40;;;0.20;;
72060;SDS011;59925;52.136;5.420;2024-03-02T01:23:09;0.70;;;0.20;;
72060;SDS011;59925;52.136;5.420;2024-03-02T01:25:36;0.82;;;0.17;;
72060;SDS011;59925;52.136;5.420;2024-03-02T01:28:03;1.25;;;0.20;;
72060;SDS011;59925;52.136;5.420;2024-03-02T01:30:30;0.52;;;0.20;;
72060;SDS011;59925;52.136;5.420;2024-03-02T01:32:57;1.75;;;0.30;;
72060;SDS011;59925;52.136;5.420;2024-03-02T01:35:25;0.50;;;0.20;;
72060;SDS011;59925;52.136;5.420;2024-03-02T01:37:53;2.60;;;0.20;;
72060;SDS011;59925;52.136;5.420;2024-03-02T01:40:20;0.73;;;0.20;;
72060;SDS011;59925;52.136;5.420;2024-03-02T01:42:47;0.47;;;0.20;;
72060;SDS011;59925;52.136;5.420;2024-03-02T01:45:13;0.50;;;0.20;;
72060;SDS011;59925;52.136;5.420;2024-03-02T01:47:40;0.40;;;0.20;;
72060;SDS011;59925;52.136;5.420;2024-03-02T01:50:07;0.50;;;0.20;;
72060;SDS011;59925;52.136;5.420;2024-03-02T01:52:33;0.57;;;0.30;;
72060;SDS011;59925;52.136;5.420;2024-03-02T01:55:00;0.50;;;0.30;;
72060;SDS011;59925;52.136;5.420;2024-03-02T01:57:26;0.40;;;0.20;;
72060;SDS011;59925;52.136;5.420;2024-03-02T01:59:53;1.43;;;0.20;;
72060;SDS011;59925;52.136;5.420;2024-03-02T02:02:20;0.55;;;0.20;;
72060;SDS011;59925;52.136;5.420;2024-03-02T02:04:46;0.30;;;0.20;;
72060;SDS011;59925;52.136;5.420;2024-03-02T02:07:13;0.63;;;0.17;;
72060;SDS011;59925;52.136;5.420;2024-03-02T02:09:41;0.38;;;0.20;;
72060;SDS011;59925;52.136;5.420;2024-03-02T02:12:09;0.50;;;0.20;;
72060;SDS011;59925;52.136;5.420;2024-03-02T02:14:36;0.50;;;0.20;;
72060;SDS011;59925;52.136;5.420;2024-03-02T02:17:03;0.40;;;0.20;;
72060;SDS011;59925;52.136;5.420;2024-03-02T02:19:29;0.50;;;0.20;;
72060;SDS011;59925;52.136;5.420;2024-03-02T02:21:56;1.65;;;0.20;;
72060;SDS011;59925;52.136;5.420;2024-03-02T02:24:23;0.63;;;0.30;;
72060;SDS011;59925;52.136;5.420;2024-03-02T02:26:49;0.30;;;0.20;;
72060;SDS011;59925;52.136;5.420;2024-03-02T02:29:16;0.70;;;0.28;;
72060;SDS011;59925;52.136;5.420;2024-03-02T02:31:42;0.35;;;0.20;;
72060;SDS011;59925;52.136;5.420;2024-03-02T02:34:09;0.68;;;0.20;;
72060;SDS011;59925;52.136;5.420;2024-03-02T02:36:37;0.70;;;0.20;;
72060;SDS011;59925;52.136;5.420;2024-03-02T02:39:05;0.20;;;0.17;;
72060;SDS011;59925;52.136;5.420;2024-03-02T02:41:34;0.28;;;0.20;;
72060;SDS011;59925;52.136;5.420;2024-03-02T02:44:00;1.17;;;0.20;;
72060;SDS011;59925;52.136;5.420;2024-03-02T02:46:27;0.47;;;0.20;;
72060;SDS011;59925;52.136;5.420;2024-03-02T02:48:53;0.50;;;0.20;;
72060;SDS011;59925;52.136;5.420;2024-03-02T02:51:20;0.20;;;0.20;;
72060;SDS011;59925;52.136;5.420;2024-03-02T02:53:46;0.47;;;0.20;;
72060;SDS011;59925;52.136;5.420;2024-03-02T02:56:13;0.52;;;0.20;;
72060;SDS011;59925;52.136;5.420;2024-03-02T02:58:40;1.08;;;0.20;;
72060;SDS011;59925;52.136;5.420;2024-03-02T03:01:08;0.40;;;0.17;;
72060;SDS011;59925;52.136;5.420;2024-03-02T03:03:35;0.88;;;0.13;;
72060;SDS011;59925;52.136;5.420;2024-03-02T03:06:01;0.20;;;0.20;;
72060;SDS011;59925;52.136;5.420;2024-03-02T03:08:28;0.32;;;0.15;;
72060;SDS011;59925;52.136;5.420;2024-03-02T03:10:55;0.57;;;0.20;;
72060;SDS011;59925;52.136;5.420;2024-03-02T03:13:22;0.87;;;0.20;;
72060;SDS011;59925;52.136;5.420;2024-03-02T03:15:49;0.30;;;0.20;;
72060;SDS011;59925;52.136;5.420;2024-03-02T03:18:15;0.73;;;0.20;;
72060;SDS011;59925;52.136;5.420;2024-03-02T03:20:42;0.47;;;0.20;;
72060;SDS011;59925;52.136;5.420;2024-03-02T03:23:08;0.30;;;0.10;;
72060;SDS011;59925;52.136;5.420;2024-03-02T03:25:35;0.43;;;0.20;;
72060;SDS011;59925;52.136;5.420;2024-03-02T03:28:01;1.05;;;0.10;;
72060;SDS011;59925;52.136;5.420;2024-03-02T03:30:28;0.22;;;0.13;;
72060;SDS011;59925;52.136;5.420;2024-03-02T03:32:55;0.75;;;0.20;;
72060;SDS011;59925;52.136;5.420;2024-03-02T03:35:22;0.55;;;0.20;;
72060;SDS011;59925;52.136;5.420;2024-03-02T03:37:49;0.30;;;0.10;;
72060;SDS011;59925;52.136;5.420;2024-03-02T03:40:15;0.28;;;0.10;;
72060;SDS011;59925;52.136;5.420;2024-03-02T03:42:42;0.82;;;0.10;;
72060;SDS011;59925;52.136;5.420;2024-03-02T03:45:08;0.22;;;0.10;;
72060;SDS011;59925;52.136;5.420;2024-03-02T03:47:35;0.35;;;0.13;;
72060;SDS011;59925;52.136;5.420;2024-03-02T03:50:02;0.30;;;0.10;;
72060;SDS011;59925;52.136;5.420;2024-03-02T03:52:31;0.70;;;0.20;;
72060;SDS011;59925;52.136;5.420;2024-03-02T03:54:58;0.30;;;0.20;;
72060;SDS011;59925;52.136;5.420;2024-03-02T03:57:26;1.15;;;0.65;;
72060;SDS011;59925;52.136;5.420;2024-03-02T03:59:53;0.55;;;0.20;;
72060;SDS011;59925;52.136;5.420;2024-03-02T04:02:20;0.60;;;0.20;;
72060;SDS011;59925;52.136;5.420;2024-03-02T04:04:46;0.30;;;0.20;;
72060;SDS011;59925;52.136;5.420;2024-03-02T04:07:13;0.65;;;0.25;;
72060;SDS011;59925;52.136;5.420;2024-03-02T04:09:39;0.45;;;0.17;;
72060;SDS011;59925;52.136;5.420;2024-03-02T04:12:06;0.43;;;0.20;;
72060;SDS011;59925;52.136;5.420;2024-03-02T04:14:32;0.57;;;0.20;;
72060;SDS011;59925;52.136;5.420;2024-03-02T04:16:59;0.70;;;0.13;;
72060;SDS011;59925;52.136;5.420;2024-03-02T04:19:25;1.23;;;0.20;;
72060;SDS011;59925;52.136;5.420;2024-03-02T04:21:52;0.95;;;0.20;;
72060;SDS011;59925;52.136;5.420;2024-03-02T04:24:18;0.57;;;0.25;;
72060;SDS011;59925;52.136;5.420;2024-03-02T04:26:45;1.33;;;0.20;;
72060;SDS011;59925;52.136;5.420;2024-03-02T04:29:11;0.93;;;0.30;;
72060;SDS011;59925;52.136;5.420;2024-03-02T04:31:37;0.73;;;0.20;;
72060;SDS011;59925;52.136;5.420;2024-03-02T04:34:04;0.90;;;0.20;;
72060;SDS011;59925;52.136;5.420;2024-03-02T04:36:30;1.20;;;0.30;;
72060;SDS011;59925;52.136;5.420;2024-03-02T04:38:57;0.40;;;0.20;;
72060;SDS011;59925;52.136;5.420;2024-03-02T04:41:23;0.90;;;0.20;;
72060;SDS011;59925;52.136;5.420;2024-03-02T04:43:50;0.68;;;0.20;;
72060;SDS011;59925;52.136;5.420;2024-03-02T04:46:16;0.85;;;0.20;;
72060;SDS011;59925;52.136;5.420;2024-03-02T04:48:43;0.57;;;0.17;;
72060;SDS011;59925;52.136;5.420;2024-03-02T04:51:10;1.70;;;0.20;;
72060;SDS011;59925;52.136;5.420;2024-03-02T04:53:37;1.63;;;0.30;;
72060;SDS011;59925;52.136;5.420;2024-03-02T04:56:04;0.32;;;0.20;;
72060;SDS011;59925;52.136;5.420;2024-03-02T04:58:49;0.73;;;0.30;;
72060;SDS011;59925;52.136;5.420;2024-03-02T05:01:16;0.45;;;0.20;;
72060;SDS011;59925;52.136;5.420;2024-03-02T05:03:43;2.47;;;0.20;;
72060;SDS011;59925;52.136;5.420;2024-03-02T05:06:11;2.05;;;0.20;;
72060;SDS011;59925;52.136;5.420;2024-03-02T05:08:37;0.50;;;0.20;;
72060;SDS011;59925;52.136;5.420;2024-03-02T05:11:04;1.55;;;0.20;;
72060;SDS011;59925;52.136;5.420;2024-03-02T05:13:49;0.10;;;0.10;;
72060;SDS011;59925;52.136;5.420;2024-03-02T05:16:15;0.97;;;0.20;;
72060;SDS011;59925;52.136;5.420;2024-03-02T05:18:42;0.32;;;0.20;;
72060;SDS011;59925;52.136;5.420;2024-03-02T05:21:09;1.27;;;0.30;;
72060;SDS011;59925;52.136;5.420;2024-03-02T05:23:35;0.25;;;0.10;;
72060;SDS011;59925;52.136;5.420;2024-03-02T05:26:01;1.17;;;0.28;;
72060;SDS011;59925;52.136;5.420;2024-03-02T05:28:29;0.10;;;0.10;;
72060;SDS011;59925;52.136;5.420;2024-03-02T05:30:55;0.50;;;0.20;;
72060;SDS011;59925;52.136;5.420;2024-03-02T05:33:22;0.73;;;0.20;;
72060;SDS011;59925;52.136;5.420;2024-03-02T05:35:49;0.52;;;0.20;;
72060;SDS011;59925;52.136;5.420;2024-03-02T05:38:18;0.70;;;0.20;;
72060;SDS011;59925;52.136;5.420;2024-03-02T05:40:44;1.07;;;0.20;;
72060;SDS011;59925;52.136;5.420;2024-03-02T05:43:11;2.75;;;0.30;;
72060;SDS011;59925;52.136;5.420;2024-03-02T05:45:37;0.73;;;0.20;;
72060;SDS011;59925;52.136;5.420;2024-03-02T05:48:08;2.13;;;0.10;;
72060;SDS011;59925;52.136;5.420;2024-03-02T05:50:35;0.95;;;0.10;;
72060;SDS011;59925;52.136;5.420;2024-03-02T05:53:02;1.60;;;0.20;;
72060;SDS011;59925;52.136;5.420;2024-03-02T05:55:28;2.13;;;0.30;;
72060;SDS011;59925;52.136;5.420;2024-03-02T05:57:55;2.15;;;0.20;;
72060;SDS011;59925;52.136;5.420;2024-03-02T06:02:05;0.88;;;0.20;;
72060;SDS011;59925;52.136;5.420;2024-03-02T06:04:32;0.30;;;0.20;;
72060;SDS011;59925;52.136;5.420;2024-03-02T06:06:58;0.50;;;0.20;;
72060;SDS011;59925;52.136;5.420;2024-03-02T06:09:25;0.57;;;0.20;;
72060;SDS011;59925;52.136;5.420;2024-03-02T06:11:52;2.67;;;0.30;;
72060;SDS011;59925;52.136;5.420;2024-03-02T06:14:19;2.22;;;0.20;;
72060;SDS011;59925;52.136;5.420;2024-03-02T06:16:46;2.28;;;0.20;;
72060;SDS011;59925;52.136;5.420;2024-03-02T06:19:12;2.13;;;0.30;;
72060;SDS011;59925;52.136;5.420;2024-03-02T06:21:39;1.45;;;0.20;;
72060;SDS011;59925;52.136;5.420;2024-03-02T06:24:06;1.27;;;0.28;;
72060;SDS011;59925;52.136;5.420;2024-03-02T06:26:32;2.67;;;0.20;;
72060;SDS011;59925;52.136;5.420;2024-03-02T06:28:59;1.73;;;0.20;;
72060;SDS011;59925;52.136;5.420;2024-03-02T06:31:25;2.90;;;0.40;;
72060;SDS011;59925;52.136;5.420;2024-03-02T06:33:52;1.05;;;0.20;;
72060;SDS011;59925;52.136;5.420;2024-03-02T06:36:19;0.68;;;0.20;;
72060;SDS011;59925;52.136;5.420;2024-03-02T06:38:45;0.98;;;0.20;;
72060;SDS011;59925;52.136;5.420;2024-03-02T06:41:12;1.90;;;0.20;;
72060;SDS011;59925;52.136;5.420;2024-03-02T06:43:38;1.53;;;0.30;;
72060;SDS011;59925;52.136;5.420;2024-03-02T06:46:05;1.60;;;0.32;;
72060;SDS011;59925;52.136;5.420;2024-03-02T06:48:32;0.60;;;0.20;;
72060;SDS011;59925;52.136;5.420;2024-03-02T06:50:59;0.45;;;0.20;;
72060;SDS011;59925;52.136;5.420;2024-03-02T06:53:25;0.85;;;0.20;;
72060;SDS011;59925;52.136;5.420;2024-03-02T06:55:51;0.40;;;0.20;;
72060;SDS011;59925;52.136;5.420;2024-03-02T06:58:18;1.17;;;0.20;;
72060;SDS011;59925;52.136;5.420;2024-03-02T07:00:44;1.65;;;0.20;;
72060;SDS011;59925;52.136;5.420;2024-03-02T07:03:11;0.60;;;0.20;;
72060;SDS011;59925;52.136;5.420;2024-03-02T07:05:39;1.05;;;0.30;;
72060;SDS011;59925;52.136;5.420;2024-03-02T07:08:05;1.70;;;0.40;;
72060;SDS011;59925;52.136;5.420;2024-03-02T07:10:32;1.30;;;0.20;;
72060;SDS011;59925;52.136;5.420;2024-03-02T07:12:59;2.25;;;0.30;;
72060;SDS011;59925;52.136;5.420;2024-03-02T07:15:25;1.15;;;0.28;;
72060;SDS011;59925;52.136;5.420;2024-03-02T07:18:30;1.98;;;0.40;;
72060;SDS011;59925;52.136;5.420;2024-03-02T07:20:57;5.23;;;0.40;;
72060;SDS011;59925;52.136;5.420;2024-03-02T07:23:25;2.65;;;0.30;;
72060;SDS011;59925;52.136;5.420;2024-03-02T07:25:53;0.30;;;0.20;;
72060;SDS011;59925;52.136;5.420;2024-03-02T07:28:25;1.83;;;0.30;;
72060;SDS011;59925;52.136;5.420;2024-03-02T07:31:03;1.25;;;0.40;;
72060;SDS011;59925;52.136;5.420;2024-03-02T07:33:31;2.13;;;0.30;;
72060;SDS011;59925;52.136;5.420;2024-03-02T07:35:58;0.63;;;0.30;;
72060;SDS011;59925;52.136;5.420;2024-03-02T07:38:30;1.05;;;0.20;;
72060;SDS011;59925;52.136;5.420;2024-03-02T07:40:57;0.57;;;0.30;;
72060;SDS011;59925;52.136;5.420;2024-03-02T07:43:24;0.90;;;0.20;;
72060;SDS011;59925;52.136;5.420;2024-03-02T07:45:51;0.70;;;0.20;;
72060;SDS011;59925;52.136;5.420;2024-03-02T07:48:18;0.85;;;0.20;;
72060;SDS011;59925;52.136;5.420;2024-03-02T07:50:44;2.22;;;0.20;;
72060;SDS011;59925;52.136;5.420;2024-03-02T07:53:11;1.13;;;0.28;;
72060;SDS011;59925;52.136;5.420;2024-03-02T07:55:38;1.17;;;0.22;;
72060;SDS011;59925;52.136;5.420;2024-03-02T07:58:04;1.77;;;0.20;;
72060;SDS011;59925;52.136;5.420;2024-03-02T08:00:31;0.60;;;0.20;;
72060;SDS011;59925;52.136;5.420;2024-03-02T08:02:57;0.57;;;0.20;;
72060;SDS011;59925;52.136;5.420;2024-03-02T08:05:25;1.70;;;0.20;;
72060;SDS011;59925;52.136;5.420;2024-03-02T08:07:51;2.67;;;0.20;;
72060;SDS011;59925;52.136;5.420;2024-03-02T08:10:19;1.80;;;0.20;;
72060;SDS011;59925;52.136;5.420;2024-03-02T08:12:46;0.90;;;0.10;;
72060;SDS011;59925;52.136;5.420;2024-03-02T08:15:12;3.05;;;0.28;;
72060;SDS011;59925;52.136;5.420;2024-03-02T08:17:39;3.40;;;0.30;;
72060;SDS011;59925;52.136;5.420;2024-03-02T08:20:14;0.80;;;0.20;;
72060;SDS011;59925;52.136;5.420;2024-03-02T08:22:41;1.60;;;0.30;;
72060;SDS011;59925;52.136;5.420;2024-03-02T08:25:08;3.85;;;0.57;;
72060;SDS011;59925;52.136;5.420;2024-03-02T08:27:36;2.60;;;0.40;;
72060;SDS011;59925;52.136;5.420;2024-03-02T08:30:03;2.80;;;0.20;;
72060;SDS011;59925;52.136;5.420;2024-03-02T08:32:32;1.63;;;0.30;;
72060;SDS011;59925;52.136;5.420;2024-03-02T08:34:59;1.80;;;0.40;;
72060;SDS011;59925;52.136;5.420;2024-03-02T08:37:26;2.70;;;0.30;;
72060;SDS011;59925;52.136;5.420;2024-03-02T08:39:53;1.13;;;0.20;;
72060;SDS011;59925;52.136;5.420;2024-03-02T08:42:19;2.00;;;0.22;;
72060;SDS011;59925;52.136;5.420;2024-03-02T08:44:46;0.63;;;0.20;;
72060;SDS011;59925;52.136;5.420;2024-03-02T08:47:13;3.00;;;0.30;;
72060;SDS011;59925;52.136;5.420;2024-03-02T08:49:39;3.00;;;0.28;;
72060;SDS011;59925;52.136;5.420;2024-03-02T08:52:06;1.75;;;0.30;;
72060;SDS011;59925;52.136;5.420;2024-03-02T08:54:32;2.25;;;0.40;;
72060;SDS011;59925;52.136;5.420;2024-03-02T08:57:00;0.50;;;0.22;;
72060;SDS011;59925;52.136;5.420;2024-03-02T08:59:26;2.77;;;0.33;;
72060;SDS011;59925;52.136;5.420;2024-03-02T09:01:54;1.98;;;0.30;;
72060;SDS011;59925;52.136;5.420;2024-03-02T09:04:20;1.17;;;0.32;;
72060;SDS011;59925;52.136;5.420;2024-03-02T09:06:52;3.35;;;0.38;;
72060;SDS011;59925;52.136;5.420;2024-03-02T09:09:18;2.30;;;0.35;;
72060;SDS011;59925;52.136;5.420;2024-03-02T09:11:45;3.57;;;0.30;;
72060;SDS011;59925;52.136;5.420;2024-03-02T09:14:12;5.47;;;0.40;;
72060;SDS011;59925;52.136;5.420;2024-03-02T09:16:41;0.73;;;0.20;;
72060;SDS011;59925;52.136;5.420;2024-03-02T09:19:08;2.15;;;0.35;;
72060;SDS011;59925;52.136;5.420;2024-03-02T09:21:36;2.05;;;0.30;;
72060;SDS011;59925;52.136;5.420;2024-03-02T09:24:04;1.70;;;0.30;;
72060;SDS011;59925;52.136;5.420;2024-03-02T09:26:30;2.05;;;0.40;;
72060;SDS011;59925;52.136;5.420;2024-03-02T09:28:57;3.03;;;0.30;;
72060;SDS011;59925;52.136;5.420;2024-03-02T09:31:24;2.97;;;0.52;;
72060;SDS011;59925;52.136;5.420;2024-03-02T09:33:50;4.65;;;0.50;;
72060;SDS011;59925;52.136;5.420;2024-03-02T09:36:20;4.80;;;0.70;;
72060;SDS011;59925;52.136;5.420;2024-03-02T09:38:48;3.22;;;0.65;;
72060;SDS011;59925;52.136;5.420;2024-03-02T09:41:15;5.75;;;0.52;;
72060;SDS011;59925;52.136;5.420;2024-03-02T09:43:42;1.88;;;0.52;;
72060;SDS011;59925;52.136;5.420;2024-03-02T09:46:09;1.98;;;0.30;;
72060;SDS011;59925;52.136;5.420;2024-03-02T09:48:36;3.10;;;0.40;;
72060;SDS011;59925;52.136;5.420;2024-03-02T09:51:04;2.30;;;0.30;;
72060;SDS011;59925;52.136;5.420;2024-03-02T09:53:31;3.78;;;0.40;;
72060;SDS011;59925;52.136;5.420;2024-03-02T09:56:00;2.15;;;0.43;;
72060;SDS011;59925;52.136;5.420;2024-03-02T09:58:27;3.80;;;0.50;;
72060;SDS011;59925;52.136;5.420;2024-03-02T10:00:53;2.33;;;0.30;;
72060;SDS011;59925;52.136;5.420;2024-03-02T10:03:20;3.20;;;0.60;;
72060;SDS011;59925;52.136;5.420;2024-03-02T10:05:50;4.65;;;0.63;;
72060;SDS011;59925;52.136;5.420;2024-03-02T10:08:18;3.55;;;0.40;;
72060;SDS011;59925;52.136;5.420;2024-03-02T10:10:44;4.45;;;0.30;;
72060;SDS011;59925;52.136;5.420;2024-03-02T10:13:12;1.40;;;0.30;;
72060;SDS011;59925;52.136;5.420;2024-03-02T10:15:40;3.25;;;0.32;;
72060;SDS011;59925;52.136;5.420;2024-03-02T10:18:08;1.95;;;0.50;;
72060;SDS011;59925;52.136;5.420;2024-03-02T10:20:37;4.03;;;0.45;;
72060;SDS011;59925;52.136;5.420;2024-03-02T10:23:13;3.60;;;0.40;;
72060;SDS011;59925;52.136;5.420;2024-03-02T10:25:43;4.13;;;0.70;;
72060;SDS011;59925;52.136;5.420;2024-03-02T10:28:22;1.75;;;0.28;;
72060;SDS011;59925;52.136;5.420;2024-03-02T10:30:49;1.95;;;0.22;;
72060;SDS011;59925;52.136;5.420;2024-03-02T10:33:17;2.33;;;0.30;;
72060;SDS011;59925;52.136;5.420;2024-03-02T10:35:44;2.70;;;0.30;;
72060;SDS011;59925;52.136;5.420;2024-03-02T10:38:11;2.07;;;0.60;;
72060;SDS011;59925;52.136;5.420;2024-03-02T10:40:38;5.65;;;0.73;;
72060;SDS011;59925;52.136;5.420;2024-03-02T10:43:04;1.92;;;0.30;;
72060;SDS011;59925;52.136;5.420;2024-03-02T10:45:33;2.47;;;0.30;;
72060;SDS011;59925;52.136;5.420;2024-03-02T10:48:01;1.88;;;0.30;;
72060;SDS011;59925;52.136;5.420;2024-03-02T10:50:28;2.40;;;0.27;;
72060;SDS011;59925;52.136;5.420;2024-03-02T10:52:56;2.47;;;0.40;;
72060;SDS011;59925;52.136;5.420;2024-03-02T10:55:23;1.38;;;0.20;;
72060;SDS011;59925;52.136;5.420;2024-03-02T10:57:51;2.10;;;0.40;;
72060;SDS011;59925;52.136;5.420;2024-03-02T11:00:20;3.25;;;0.30;;
72060;SDS011;59925;52.136;5.420;2024-03-02T11:02:57;2.60;;;0.33;;
72060;SDS011;59925;52.136;5.420;2024-03-02T11:05:29;1.85;;;0.20;;
72060;SDS011;59925;52.136;5.420;2024-03-02T11:08:00;3.40;;;0.30;;
72060;SDS011;59925;52.136;5.420;2024-03-02T11:13:31;2.40;;;0.20;;
72060;SDS011;59925;52.136;5.420;2024-03-02T11:16:09;2.50;;;0.30;;
72060;SDS011;59925;52.136;5.420;2024-03-02T11:18:42;4.72;;;0.38;;
72060;SDS011;59925;52.136;5.420;2024-03-02T11:21:10;2.38;;;0.73;;
72060;SDS011;59925;52.136;5.420;2024-03-02T11:23:37;1.83;;;0.40;;
72060;SDS011;59925;52.136;5.420;2024-03-02T11:26:22;2.45;;;0.30;;
72060;SDS011;59925;52.136;5.420;2024-03-02T11:28:50;3.40;;;0.30;;
72060;SDS011;59925;52.136;5.420;2024-03-02T11:31:17;0.85;;;0.20;;
72060;SDS011;59925;52.136;5.420;2024-03-02T11:33:43;1.95;;;0.30;;
72060;SDS011;59925;52.136;5.420;2024-03-02T11:36:10;3.08;;;0.30;;
72060;SDS011;59925;52.136;5.420;2024-03-02T11:38:38;2.15;;;0.40;;
72060;SDS011;59925;52.136;5.420;2024-03-02T11:41:08;2.10;;;0.50;;
72060;SDS011;59925;52.136;5.420;2024-03-02T11:43:38;1.45;;;0.30;;
72060;SDS011;59925;52.136;5.420;2024-03-02T11:46:06;2.75;;;0.60;;
72060;SDS011;59925;52.136;5.420;2024-03-02T11:48:36;1.02;;;0.20;;
72060;SDS011;59925;52.136;5.420;2024-03-02T11:51:06;1.10;;;0.40;;
72060;SDS011;59925;52.136;5.420;2024-03-02T11:53:32;2.60;;;0.40;;
72060;SDS011;59925;52.136;5.420;2024-03-02T11:56:01;1.75;;;0.30;;
72060;SDS011;59925;52.136;5.420;2024-03-02T11:58:28;2.80;;;0.38;;
72060;SDS011;59925;52.136;5.420;2024-03-02T12:00:55;1.13;;;0.30;;
72060;SDS011;59925;52.136;5.420;2024-03-02T12:03:23;2.20;;;0.20;;
72060;SDS011;59925;52.136;5.420;2024-03-02T12:05:52;1.80;;;0.30;;
72060;SDS011;59925;52.136;5.420;2024-03-02T12:08:20;1.27;;;0.20;;
72060;SDS011;59925;52.136;5.420;2024-03-02T12:10:57;3.40;;;0.40;;
72060;SDS011;59925;52.136;5.420;2024-03-02T12:13:25;2.30;;;0.40;;
72060;SDS011;59925;52.136;5.420;2024-03-02T12:15:55;2.58;;;0.40;;
72060;SDS011;59925;52.136;5.420;2024-03-02T12:18:22;0.93;;;0.20;;
72060;SDS011;59925;52.136;5.420;2024-03-02T12:20:49;0.63;;;0.20;;
72060;SDS011;59925;52.136;5.420;2024-03-02T12:23:19;2.33;;;0.50;;
72060;SDS011;59925;52.136;5.420;2024-03-02T12:25:46;2.58;;;0.20;;
72060;SDS011;59925;52.136;5.420;2024-03-02T12:28:12;3.15;;;0.40;;
72060;SDS011;59925;52.136;5.420;2024-03-02T12:30:39;4.70;;;0.40;;
72060;SDS011;59925;52.136;5.420;2024-03-02T12:33:06;2.00;;;0.30;;
72060;SDS011;59925;52.136;5.420;2024-03-02T12:35:32;3.17;;;0.30;;
72060;SDS011;59925;52.136;5.420;2024-03-02T12:37:59;2.65;;;0.40;;
72060;SDS011;59925;52.136;5.420;2024-03-02T12:40:26;2.75;;;0.40;;
72060;SDS011;59925;52.136;5.420;2024-03-02T12:42:53;2.83;;;0.40;;
72060;SDS011;59925;52.136;5.420;2024-03-02T12:45:20;2.78;;;0.40;;
72060;SDS011;59925;52.136;5.420;2024-03-02T12:47:51;2.25;;;0.40;;
72060;SDS011;59925;52.136;5.420;2024-03-02T12:50:18;1.08;;;0.40;;
72060;SDS011;59925;52.136;5.420;2024-03-02T12:52:52;1.67;;;0.40;;
72060;SDS011;59925;52.136;5.420;2024-03-02T12:55:20;1.77;;;0.43;;
72060;SDS011;59925;52.136;5.420;2024-03-02T12:57:49;3.28;;;0.50;;
72060;SDS011;59925;52.136;5.420;2024-03-02T13:00:18;2.97;;;0.30;;
72060;SDS011;59925;52.136;5.420;2024-03-02T13:02:45;2.42;;;0.50;;
72060;SDS011;59925;52.136;5.420;2024-03-02T13:05:12;2.65;;;0.60;;
72060;SDS011;59925;52.136;5.420;2024-03-02T13:07:39;3.53;;;0.40;;
72060;SDS011;59925;52.136;5.420;2024-03-02T13:10:07;1.70;;;0.30;;
72060;SDS011;59925;52.136;5.420;2024-03-02T13:12:36;0.88;;;0.30;;
72060;SDS011;59925;52.136;5.420;2024-03-02T13:15:04;1.23;;;0.50;;
72060;SDS011;59925;52.136;5.420;2024-03-02T13:17:34;2.25;;;0.35;;
72060;SDS011;59925;52.136;5.420;2024-03-02T13:20:04;2.27;;;0.50;;
72060;SDS011;59925;52.136;5.420;2024-03-02T13:22:35;2.35;;;0.30;;
72060;SDS011;59925;52.136;5.420;2024-03-02T13:25:01;2.63;;;0.30;;
72060;SDS011;59925;52.136;5.420;2024-03-02T13:27:31;3.13;;;0.60;;
72060;SDS011;59925;52.136;5.420;2024-03-02T13:29:59;1.45;;;0.30;;
72060;SDS011;59925;52.136;5.420;2024-03-02T13:32:25;3.03;;;0.50;;
72060;SDS011;59925;52.136;5.420;2024-03-02T13:34:55;2.58;;;0.77;;
72060;SDS011;59925;52.136;5.420;2024-03-02T13:37:21;1.75;;;0.40;;
72060;SDS011;59925;52.136;5.420;2024-03-02T13:39:48;2.75;;;0.43;;
72060;SDS011;59925;52.136;5.420;2024-03-02T13:42:15;1.80;;;0.45;;
72060;SDS011;59925;52.136;5.420;2024-03-02T13:44:43;4.47;;;0.67;;
72060;SDS011;59925;52.136;5.420;2024-03-02T13:47:13;3.65;;;0.47;;
72060;SDS011;59925;52.136;5.420;2024-03-02T13:49:39;3.15;;;0.55;;
72060;SDS011;59925;52.136;5.420;2024-03-02T13:52:10;3.30;;;0.57;;
72060;SDS011;59925;52.136;5.420;2024-03-02T13:54:37;2.03;;;0.43;;
72060;SDS011;59925;52.136;5.420;2024-03-02T13:57:06;5.03;;;0.50;;
72060;SDS011;59925;52.136;5.420;2024-03-02T13:59:34;3.17;;;0.60;;
72060;SDS011;59925;52.136;5.420;2024-03-02T14:02:01;2.60;;;0.60;;
72060;SDS011;59925;52.136;5.420;2024-03-02T14:04:31;2.15;;;0.40;;
72060;SDS011;59925;52.136;5.420;2024-03-02T14:06:59;2.60;;;0.50;;
72060;SDS011;59925;52.136;5.420;2024-03-02T14:09:26;2.43;;;0.60;;
72060;SDS011;59925;52.136;5.420;2024-03-02T14:11:53;2.60;;;0.63;;
72060;SDS011;59925;52.136;5.420;2024-03-02T14:14:21;2.90;;;0.50;;
72060;SDS011;59925;52.136;5.420;2024-03-02T14:16:48;2.90;;;0.50;;
72060;SDS011;59925;52.136;5.420;2024-03-02T14:19:14;2.78;;;0.50;;
72060;SDS011;59925;52.136;5.420;2024-03-02T14:21:41;2.07;;;0.83;;
72060;SDS011;59925;52.136;5.420;2024-03-02T14:24:07;4.60;;;0.80;;
72060;SDS011;59925;52.136;5.420;2024-03-02T14:26:35;2.42;;;0.80;;
72060;SDS011;59925;52.136;5.420;2024-03-02T14:29:03;3.13;;;0.52;;
72060;SDS011;59925;52.136;5.420;2024-03-02T14:31:30;1.98;;;0.50;;
72060;SDS011;59925;52.136;5.420;2024-03-02T14:33:58;2.43;;;0.60;;
72060;SDS011;59925;52.136;5.420;2024-03-02T14:36:25;2.25;;;0.50;;
72060;SDS011;59925;52.136;5.420;2024-03-02T14:38:54;2.63;;;0.40;;
72060;SDS011;59925;52.136;5.420;2024-03-02T14:41:22;2.67;;;0.60;;
72060;SDS011;59925;52.136;5.420;2024-03-02T14:43:50;3.17;;;0.70;;
72060;SDS011;59925;52.136;5.420;2024-03-02T14:46:18;4.17;;;0.60;;
72060;SDS011;59925;52.136;5.420;2024-03-02T14:48:45;2.03;;;0.40;;
72060;SDS011;59925;52.136;5.420;2024-03-02T14:51:13;3.05;;;0.43;;
72060;SDS011;59925;52.136;5.420;2024-03-02T14:53:39;2.58;;;0.50;;
72060;SDS011;59925;52.136;5.420;2024-03-02T14:56:06;3.28;;;0.65;;
72060;SDS011;59925;52.136;5.420;2024-03-02T14:58:33;1.23;;;0.50;;